Track Тремпольцева Анна

Time Latitude Longitude Accuracy (66% radius in meters) Altitude (meters) Speed (km/hour) Bearing (degrees) Battery (%) GPS flag
09:08:21 57.203712 60.118987 0 0 0 0 1 delete
09:08:20 57.203712 60.118987 0 0 0 0 1 delete
09:08:19 57.203712 60.118988 0 0 0 0 1 delete
09:08:18 57.203712 60.118992 0 0 0 0 1 delete
09:08:17 57.203713 60.118993 0 0 0 0 1 delete
09:08:16 57.203713 60.118993 0 0 0 0 1 delete
09:08:15 57.203713 60.118993 0 0 0 0 1 delete
09:08:14 57.203713 60.118993 0 0 0 0 1 delete
09:08:13 57.203713 60.118993 0 0 0 0 1 delete
09:08:12 57.203713 60.118993 0 0 0 0 1 delete
09:08:11 57.203713 60.118995 0 0 0 0 1 delete
09:08:10 57.203713 60.118995 0 0 0 0 1 delete
09:08:09 57.203713 60.118995 0 0 0 0 1 delete
09:08:08 57.203713 60.118995 0 0 0 0 1 delete
09:08:07 57.203713 60.118993 0 0 0 0 1 delete
09:08:06 57.203715 60.118995 0 0 0 0 1 delete
09:08:05 57.203715 60.118995 0 0 0 0 1 delete
09:08:04 57.203715 60.118997 0 0 0 0 1 delete
09:08:03 57.203715 60.118998 0 0 0 0 1 delete
09:08:02 57.203715 60.119000 0 0 0 0 1 delete
09:08:01 57.203717 60.118998 0 0 0 0 1 delete
09:08:00 57.203717 60.119000 0 0 0 0 1 delete
09:07:59 57.203718 60.119000 0 0 0 0 1 delete
09:07:58 57.203718 60.119003 0 0 0 0 1 delete
09:07:57 57.203718 60.119003 0 0 0 0 1 delete
09:07:56 57.203722 60.119002 0 0 0 0 1 delete
09:07:55 57.203722 60.119000 0 0 0 0 1 delete
09:07:54 57.203725 60.118992 0 0 0 0 1 delete
09:07:53 57.203728 60.118987 0 0 0 0 1 delete
09:07:52 57.203730 60.118987 0 0 0 0 1 delete
09:07:51 57.203730 60.118987 0 0 0 0 1 delete
09:07:50 57.203732 60.118987 0 0 0 0 1 delete
09:07:49 57.203733 60.118988 0 0 0 0 1 delete
09:07:48 57.203732 60.118987 0 0 0 0 1 delete
09:07:47 57.203733 60.118988 0 0 0 0 1 delete
09:07:46 57.203735 60.118988 0 0 0 0 1 delete
09:07:45 57.203735 60.118988 0 0 0 0 1 delete
09:07:44 57.203735 60.118990 0 0 0 0 1 delete
09:07:43 57.203737 60.118990 0 0 0 0 1 delete
09:07:42 57.203740 60.118990 0 0 0 0 1 delete
09:07:41 57.203743 60.118987 0 0 0 0 1 delete
09:07:40 57.203747 60.118983 0 0 0 0 1 delete
09:07:39 57.203745 60.118985 0 0 0 0 1 delete
09:07:38 57.203745 60.118985 0 0 0 0 1 delete
09:07:37 57.203745 60.118985 0 0 0 0 1 delete
09:07:36 57.203745 60.118985 0 0 0 0 1 delete
09:07:35 57.203743 60.118990 0 0 0 0 1 delete
09:07:34 57.203743 60.118990 0 0 0 0 1 delete
09:07:33 57.203743 60.118988 0 0 0 0 1 delete
09:07:32 57.203743 60.118985 0 0 0 0 1 delete